sensor_id;sensor_type;location;lat;lon;timestamp;pressure;altitude;pressure_sealevel;temperature;humidity
33265;BME280;31404;53.974;-1.086;2024-03-29T00:00:38;97439.21;;;6.77;100.00
33265;BME280;31404;53.974;-1.086;2024-03-29T00:05:36;97453.21;;;6.65;100.00
33265;BME280;31404;53.974;-1.086;2024-03-29T00:10:36;97457.45;;;6.59;100.00
33265;BME280;31404;53.974;-1.086;2024-03-29T00:15:35;97478.47;;;5.21;100.00
33265;BME280;31404;53.974;-1.086;2024-03-29T00:20:35;97493.70;;;5.28;100.00
33265;BME280;31404;53.974;-1.086;2024-03-29T00:25:36;97507.98;;;5.85;100.00
33265;BME280;31404;53.974;-1.086;2024-03-29T00:30:36;97529.07;;;5.48;100.00
33265;BME280;31404;53.974;-1.086;2024-03-29T00:35:36;97544.39;;;6.12;100.00
33265;BME280;31404;53.974;-1.086;2024-03-29T00:40:38;97561.23;;;5.67;100.00
33265;BME280;31404;53.974;-1.086;2024-03-29T00:45:36;97569.66;;;6.06;100.00
33265;BME280;31404;53.974;-1.086;2024-03-29T00:50:35;97578.41;;;5.78;100.00
33265;BME280;31404;53.974;-1.086;2024-03-29T00:55:36;97576.88;;;4.97;100.00
33265;BME280;31404;53.974;-1.086;2024-03-29T01:00:36;97589.36;;;5.69;100.00
33265;BME280;31404;53.974;-1.086;2024-03-29T01:05:36;97597.27;;;5.78;100.00
33265;BME280;31404;53.974;-1.086;2024-03-29T01:10:35;97612.66;;;5.71;100.00
33265;BME280;31404;53.974;-1.086;2024-03-29T01:15:37;97627.47;;;5.21;100.00
33265;BME280;31404;53.974;-1.086;2024-03-29T01:20:36;97630.28;;;5.90;100.00
33265;BME280;31404;53.974;-1.086;2024-03-29T01:30:36;97651.28;;;5.07;100.00
33265;BME280;31404;53.974;-1.086;2024-03-29T01:35:36;97682.06;;;4.36;100.00
33265;BME280;31404;53.974;-1.086;2024-03-29T01:40:36;97697.26;;;4.35;100.00
33265;BME280;31404;53.974;-1.086;2024-03-29T01:45:38;97706.79;;;6.13;100.00
33265;BME280;31404;53.974;-1.086;2024-03-29T01:50:37;97715.51;;;5.64;100.00
33265;BME280;31404;53.974;-1.086;2024-03-29T01:55:36;97728.87;;;4.85;100.00
33265;BME280;31404;53.974;-1.086;2024-03-29T02:00:36;97737.93;;;6.05;100.00
33265;BME280;31404;53.974;-1.086;2024-03-29T02:05:36;97753.60;;;5.46;100.00
33265;BME280;31404;53.974;-1.086;2024-03-29T02:10:41;97768.40;;;5.85;100.00
33265;BME280;31404;53.974;-1.086;2024-03-29T02:15:36;97779.85;;;5.12;100.00
33265;BME280;31404;53.974;-1.086;2024-03-29T02:20:36;97799.84;;;3.28;100.00
33265;BME280;31404;53.974;-1.086;2024-03-29T02:25:37;97802.14;;;3.02;100.00
33265;BME280;31404;53.974;-1.086;2024-03-29T02:30:37;97815.35;;;2.49;100.00
33265;BME280;31404;53.974;-1.086;2024-03-29T02:35:36;97826.52;;;2.59;100.00
33265;BME280;31404;53.974;-1.086;2024-03-29T02:40:35;97827.79;;;4.21;100.00
33265;BME280;31404;53.974;-1.086;2024-03-29T02:45:36;97843.87;;;4.03;100.00
33265;BME280;31404;53.974;-1.086;2024-03-29T02:50:34;97852.15;;;5.20;100.00
33265;BME280;31404;53.974;-1.086;2024-03-29T02:55:36;97865.80;;;5.28;100.00
33265;BME280;31404;53.974;-1.086;2024-03-29T03:00:36;97888.70;;;5.25;100.00
33265;BME280;31404;53.974;-1.086;2024-03-29T03:05:35;97903.26;;;5.02;100.00
33265;BME280;31404;53.974;-1.086;2024-03-29T03:10:35;97914.28;;;5.89;100.00
33265;BME280;31404;53.974;-1.086;2024-03-29T03:15:36;97923.78;;;5.47;100.00
33265;BME280;31404;53.974;-1.086;2024-03-29T03:20:36;97923.72;;;6.01;100.00
33265;BME280;31404;53.974;-1.086;2024-03-29T03:25:36;97926.04;;;6.08;100.00
33265;BME280;31404;53.974;-1.086;2024-03-29T03:30:39;97932.02;;;6.98;100.00
33265;BME280;31404;53.974;-1.086;2024-03-29T03:35:37;97930.41;;;6.83;100.00
33265;BME280;31404;53.974;-1.086;2024-03-29T03:40:37;97936.66;;;6.95;100.00
33265;BME280;31404;53.974;-1.086;2024-03-29T03:50:36;97941.62;;;7.62;100.00
33265;BME280;31404;53.974;-1.086;2024-03-29T03:55:36;97944.78;;;6.77;100.00
33265;BME280;31404;53.974;-1.086;2024-03-29T04:00:34;97951.10;;;7.08;100.00
33265;BME280;31404;53.974;-1.086;2024-03-29T04:05:37;97960.18;;;7.53;100.00
33265;BME280;31404;53.974;-1.086;2024-03-29T04:10:38;97967.80;;;7.15;100.00
33265;BME280;31404;53.974;-1.086;2024-03-29T04:15:36;97968.12;;;7.90;100.00
33265;BME280;31404;53.974;-1.086;2024-03-29T04:20:35;97971.55;;;7.04;100.00
33265;BME280;31404;53.974;-1.086;2024-03-29T04:25:35;97975.79;;;6.66;100.00
33265;BME280;31404;53.974;-1.086;2024-03-29T04:30:36;97990.03;;;6.63;100.00
33265;BME280;31404;53.974;-1.086;2024-03-29T04:35:35;97989.66;;;7.37;100.00
33265;BME280;31404;53.974;-1.086;2024-03-29T04:40:36;98002.23;;;7.33;99.88
33265;BME280;31404;53.974;-1.086;2024-03-29T04:45:36;98003.90;;;8.76;92.84
33265;BME280;31404;53.974;-1.086;2024-03-29T04:50:35;98011.59;;;7.33;95.39
33265;BME280;31404;53.974;-1.086;2024-03-29T04:55:36;98018.14;;;7.34;97.60
33265;BME280;31404;53.974;-1.086;2024-03-29T05:00:35;98024.65;;;7.14;97.99
33265;BME280;31404;53.974;-1.086;2024-03-29T05:05:36;98031.11;;;6.43;100.00
33265;BME280;31404;53.974;-1.086;2024-03-29T05:15:36;98039.90;;;5.45;100.00
33265;BME280;31404;53.974;-1.086;2024-03-29T05:20:36;98058.36;;;4.46;100.00
33265;BME280;31404;53.974;-1.086;2024-03-29T05:25:36;98071.58;;;4.05;100.00
33265;BME280;31404;53.974;-1.086;2024-03-29T05:30:36;98078.15;;;4.18;100.00
33265;BME280;31404;53.974;-1.086;2024-03-29T05:35:35;98091.63;;;5.19;100.00
33265;BME280;31404;53.974;-1.086;2024-03-29T05:40:36;98097.10;;;5.44;100.00
33265;BME280;31404;53.974;-1.086;2024-03-29T05:45:36;98095.38;;;5.76;100.00
33265;BME280;31404;53.974;-1.086;2024-03-29T05:50:36;98101.72;;;5.82;100.00
33265;BME280;31404;53.974;-1.086;2024-03-29T05:55:36;98104.04;;;5.60;100.00
33265;BME280;31404;53.974;-1.086;2024-03-29T06:00:36;98107.07;;;5.65;100.00
33265;BME280;31404;53.974;-1.086;2024-03-29T06:05:36;98113.80;;;5.93;100.00
33265;BME280;31404;53.974;-1.086;2024-03-29T06:10:35;98120.68;;;6.02;100.00
33265;BME280;31404;53.974;-1.086;2024-03-29T06:15:36;98127.87;;;4.90;100.00
33265;BME280;31404;53.974;-1.086;2024-03-29T06:20:36;98129.99;;;4.62;100.00
33265;BME280;31404;53.974;-1.086;2024-03-29T06:25:39;98134.70;;;4.54;100.00
33265;BME280;31404;53.974;-1.086;2024-03-29T06:30:37;98146.23;;;4.56;100.00
33265;BME280;31404;53.974;-1.086;2024-03-29T06:35:35;98153.61;;;5.35;100.00
33265;BME280;31404;53.974;-1.086;2024-03-29T06:40:36;98160.41;;;5.20;100.00
33265;BME280;31404;53.974;-1.086;2024-03-29T06:50:37;98162.22;;;6.04;100.00
33265;BME280;31404;53.974;-1.086;2024-03-29T06:55:35;98169.69;;;5.27;100.00
33265;BME280;31404;53.974;-1.086;2024-03-29T07:00:36;98169.13;;;5.58;100.00
33265;BME280;31404;53.974;-1.086;2024-03-29T07:05:35;98174.12;;;5.11;100.00
33265;BME280;31404;53.974;-1.086;2024-03-29T07:10:35;98177.32;;;5.18;100.00
33265;BME280;31404;53.974;-1.086;2024-03-29T07:15:36;98177.58;;;5.38;100.00
33265;BME280;31404;53.974;-1.086;2024-03-29T07:20:36;98173.92;;;5.99;100.00
33265;BME280;31404;53.974;-1.086;2024-03-29T07:25:35;98175.59;;;5.64;100.00
33265;BME280;31404;53.974;-1.086;2024-03-29T07:30:37;98177.87;;;4.12;100.00
33265;BME280;31404;53.974;-1.086;2024-03-29T07:35:36;98183.92;;;4.78;100.00
33265;BME280;31404;53.974;-1.086;2024-03-29T07:40:36;98187.63;;;5.40;100.00
33265;BME280;31404;53.974;-1.086;2024-03-29T07:45:36;98188.43;;;5.77;100.00
33265;BME280;31404;53.974;-1.086;2024-03-29T07:50:37;98189.99;;;5.49;100.00
33265;BME280;31404;53.974;-1.086;2024-03-29T07:55:37;98193.16;;;5.75;100.00
33265;BME280;31404;53.974;-1.086;2024-03-29T08:05:37;98211.10;;;5.52;100.00
33265;BME280;31404;53.974;-1.086;2024-03-29T08:10:35;98215.79;;;5.26;100.00
33265;BME280;31404;53.974;-1.086;2024-03-29T08:15:37;98223.80;;;4.19;100.00
33265;BME280;31404;53.974;-1.086;2024-03-29T08:20:36;98228.98;;;4.89;100.00
33265;BME280;31404;53.974;-1.086;2024-03-29T08:25:37;98233.36;;;5.67;100.00
33265;BME280;31404;53.974;-1.086;2024-03-29T08:30:36;98237.06;;;5.64;100.00
33265;BME280;31404;53.974;-1.086;2024-03-29T08:35:36;98244.81;;;5.57;100.00
33265;BME280;31404;53.974;-1.086;2024-03-29T08:40:37;98239.71;;;5.17;100.00
33265;BME280;31404;53.974;-1.086;2024-03-29T08:45:36;98250.06;;;5.41;100.00
33265;BME280;31404;53.974;-1.086;2024-03-29T08:50:37;98254.63;;;6.01;100.00
33265;BME280;31404;53.974;-1.086;2024-03-29T08:55:37;98244.10;;;6.68;100.00
33265;BME280;31404;53.974;-1.086;2024-03-29T09:00:35;98240.70;;;7.54;100.00
33265;BME280;31404;53.974;-1.086;2024-03-29T09:05:36;98254.67;;;7.19;100.00
33265;BME280;31404;53.974;-1.086;2024-03-29T09:10:37;98265.87;;;7.33;100.00
33265;BME280;31404;53.974;-1.086;2024-03-29T09:15:36;98271.55;;;6.61;100.00
33265;BME280;31404;53.974;-1.086;2024-03-29T09:20:37;98271.42;;;6.05;100.00
33265;BME280;31404;53.974;-1.086;2024-03-29T09:30:37;98259.35;;;7.89;100.00
33265;BME280;31404;53.974;-1.086;2024-03-29T09:35:37;98270.11;;;6.24;100.00
33265;BME280;31404;53.974;-1.086;2024-03-29T09:40:37;98267.22;;;6.09;100.00
33265;BME280;31404;53.974;-1.086;2024-03-29T09:45:37;98264.47;;;6.26;100.00
33265;BME280;31404;53.974;-1.086;2024-03-29T09:50:37;98261.50;;;6.87;100.00
33265;BME280;31404;53.974;-1.086;2024-03-29T09:55:37;98252.40;;;7.37;100.00
33265;BME280;31404;53.974;-1.086;2024-03-29T10:00:36;98245.99;;;6.65;100.00
33265;BME280;31404;53.974;-1.086;2024-03-29T10:05:36;98261.85;;;6.44;100.00
33265;BME280;31404;53.974;-1.086;2024-03-29T10:10:36;98258.82;;;7.11;100.00
33265;BME280;31404;53.974;-1.086;2024-03-29T10:15:36;98258.61;;;6.31;100.00
33265;BME280;31404;53.974;-1.086;2024-03-29T10:20:38;98256.22;;;7.35;100.00
33265;BME280;31404;53.974;-1.086;2024-03-29T10:25:36;98261.33;;;8.43;100.00
33265;BME280;31404;53.974;-1.086;2024-03-29T10:30:38;98266.93;;;7.18;100.00
33265;BME280;31404;53.974;-1.086;2024-03-29T10:35:37;98268.97;;;8.06;100.00
33265;BME280;31404;53.974;-1.086;2024-03-29T10:40:37;98270.41;;;6.59;100.00
33265;BME280;31404;53.974;-1.086;2024-03-29T10:45:36;98275.44;;;7.21;100.00
33265;BME280;31404;53.974;-1.086;2024-03-29T10:50:37;98277.17;;;6.63;100.00
33265;BME280;31404;53.974;-1.086;2024-03-29T10:55:37;98283.16;;;6.52;100.00
33265;BME280;31404;53.974;-1.086;2024-03-29T11:00:39;98285.69;;;6.61;100.00
33265;BME280;31404;53.974;-1.086;2024-03-29T11:05:37;98279.68;;;6.42;100.00
33265;BME280;31404;53.974;-1.086;2024-03-29T11:10:39;98284.36;;;6.10;100.00
33265;BME280;31404;53.974;-1.086;2024-03-29T11:15:37;98280.48;;;6.97;100.00
33265;BME280;31404;53.974;-1.086;2024-03-29T11:20:36;98278.58;;;7.19;100.00
33265;BME280;31404;53.974;-1.086;2024-03-29T11:40:36;98270.29;;;9.29;100.00
33265;BME280;31404;53.974;-1.086;2024-03-29T11:45:37;98268.25;;;8.78;100.00
33265;BME280;31404;53.974;-1.086;2024-03-29T11:50:37;98269.38;;;9.40;100.00
33265;BME280;31404;53.974;-1.086;2024-03-29T11:55:36;98270.15;;;10.38;100.00
33265;BME280;31404;53.974;-1.086;2024-03-29T12:00:38;98271.17;;;8.75;100.00
33265;BME280;31404;53.974;-1.086;2024-03-29T12:05:37;98280.51;;;9.91;100.00
33265;BME280;31404;53.974;-1.086;2024-03-29T12:10:37;98283.22;;;9.63;100.00
33265;BME280;31404;53.974;-1.086;2024-03-29T12:15:35;98271.34;;;9.41;100.00
33265;BME280;31404;53.974;-1.086;2024-03-29T12:20:35;98274.17;;;11.01;100.00
33265;BME280;31404;53.974;-1.086;2024-03-29T12:25:37;98273.40;;;10.47;100.00
33265;BME280;31404;53.974;-1.086;2024-03-29T12:30:35;98276.21;;;10.72;100.00
33265;BME280;31404;53.974;-1.086;2024-03-29T12:35:36;98276.67;;;10.81;99.20
33265;BME280;31404;53.974;-1.086;2024-03-29T12:40:35;98290.02;;;10.16;100.00
33265;BME280;31404;53.974;-1.086;2024-03-29T12:45:39;98285.30;;;10.79;100.00
33265;BME280;31404;53.974;-1.086;2024-03-29T12:50:36;98290.37;;;10.13;99.08
33265;BME280;31404;53.974;-1.086;2024-03-29T12:55:39;98291.77;;;9.85;95.78
33265;BME280;31404;53.974;-1.086;2024-03-29T13:00:37;98294.38;;;10.28;94.81
33265;BME280;31404;53.974;-1.086;2024-03-29T13:05:39;98293.07;;;10.84;97.14
33265;BME280;31404;53.974;-1.086;2024-03-29T13:10:36;98290.78;;;10.77;92.85
33265;BME280;31404;53.974;-1.086;2024-03-29T13:15:36;98297.48;;;11.37;90.06
33265;BME280;31404;53.974;-1.086;2024-03-29T13:20:37;98301.00;;;11.53;89.81
33265;BME280;31404;53.974;-1.086;2024-03-29T13:25:36;98306.18;;;11.13;88.07
33265;BME280;31404;53.974;-1.086;2024-03-29T13:30:37;98301.47;;;11.74;84.77
33265;BME280;31404;53.974;-1.086;2024-03-29T13:35:35;98296.14;;;13.00;78.36
33265;BME280;31404;53.974;-1.086;2024-03-29T13:40:37;98300.85;;;12.83;80.46
33265;BME280;31404;53.974;-1.086;2024-03-29T13:45:36;98312.32;;;11.84;80.09
33265;BME280;31404;53.974;-1.086;2024-03-29T13:50:37;98320.55;;;10.75;80.59
33265;BME280;31404;53.974;-1.086;2024-03-29T13:55:37;98320.41;;;9.57;84.96
33265;BME280;31404;53.974;-1.086;2024-03-29T14:00:37;98326.76;;;10.05;88.52
33265;BME280;31404;53.974;-1.086;2024-03-29T14:05:42;98332.45;;;9.87;83.56
33265;BME280;31404;53.974;-1.086;2024-03-29T14:10:36;98337.00;;;10.38;79.36
33265;BME280;31404;53.974;-1.086;2024-03-29T14:15:36;98319.20;;;10.83;75.15
33265;BME280;31404;53.974;-1.086;2024-03-29T14:20:38;98314.38;;;12.10;68.64
33265;BME280;31404;53.974;-1.086;2024-03-29T14:25:37;98310.71;;;12.52;69.52
33265;BME280;31404;53.974;-1.086;2024-03-29T14:30:37;98320.20;;;12.57;67.92
33265;BME280;31404;53.974;-1.086;2024-03-29T14:35:36;98318.94;;;12.16;70.53
33265;BME280;31404;53.974;-1.086;2024-03-29T14:40:38;98322.64;;;12.38;68.23
33265;BME280;31404;53.974;-1.086;2024-03-29T14:45:37;98318.48;;;11.80;71.43
33265;BME280;31404;53.974;-1.086;2024-03-29T14:50:37;98321.11;;;12.19;73.61
33265;BME280;31404;53.974;-1.086;2024-03-29T14:55:36;98314.86;;;11.65;75.69
33265;BME280;31404;53.974;-1.086;2024-03-29T15:00:37;98312.49;;;12.09;74.56
33265;BME280;31404;53.974;-1.086;2024-03-29T15:05:35;98303.47;;;13.37;72.29
33265;BME280;31404;53.974;-1.086;2024-03-29T15:10:37;98311.91;;;12.55;71.63
33265;BME280;31404;53.974;-1.086;2024-03-29T15:15:38;98314.86;;;12.58;72.63
33265;BME280;31404;53.974;-1.086;2024-03-29T15:20:36;98314.20;;;12.08;72.91
33265;BME280;31404;53.974;-1.086;2024-03-29T15:25:36;98309.41;;;12.88;71.89
33265;BME280;31404;53.974;-1.086;2024-03-29T15:30:37;98308.83;;;12.72;70.74
33265;BME280;31404;53.974;-1.086;2024-03-29T15:35:37;98304.86;;;12.66;69.78
33265;BME280;31404;53.974;-1.086;2024-03-29T15:40:37;98307.52;;;12.72;70.10
33265;BME280;31404;53.974;-1.086;2024-03-29T15:45:37;98314.02;;;12.46;72.03
33265;BME280;31404;53.974;-1.086;2024-03-29T15:50:36;98315.73;;;11.62;74.07
33265;BME280;31404;53.974;-1.086;2024-03-29T15:55:35;98312.01;;;12.50;71.63
33265;BME280;31404;53.974;-1.086;2024-03-29T16:00:35;98317.57;;;12.49;72.61
33265;BME280;31404;53.974;-1.086;2024-03-29T16:05:37;98302.35;;;14.30;66.95
33265;BME280;31404;53.974;-1.086;2024-03-29T16:15:37;98310.52;;;13.35;66.80
33265;BME280;31404;53.974;-1.086;2024-03-29T16:20:37;98319.96;;;11.90;68.38
33265;BME280;31404;53.974;-1.086;2024-03-29T16:25:37;98321.27;;;12.16;68.12
33265;BME280;31404;53.974;-1.086;2024-03-29T16:30:36;98325.67;;;11.58;70.00
33265;BME280;31404;53.974;-1.086;2024-03-29T16:35:37;98324.38;;;11.84;68.04
33265;BME280;31404;53.974;-1.086;2024-03-29T16:40:36;98330.95;;;12.28;67.54
33265;BME280;31404;53.974;-1.086;2024-03-29T16:45:37;98341.54;;;10.68;74.50
33265;BME280;31404;53.974;-1.086;2024-03-29T16:50:37;98357.97;;;9.74;85.42
33265;BME280;31404;53.974;-1.086;2024-03-29T16:55:37;98433.36;;;9.80;93.12
33265;BME280;31404;53.974;-1.086;2024-03-29T17:00:35;98427.10;;;8.00;100.00
33265;BME280;31404;53.974;-1.086;2024-03-29T17:05:35;98413.66;;;7.99;100.00
33265;BME280;31404;53.974;-1.086;2024-03-29T17:10:35;98395.86;;;9.46;100.00
33265;BME280;31404;53.974;-1.086;2024-03-29T17:15:36;98392.22;;;9.52;100.00
33265;BME280;31404;53.974;-1.086;2024-03-29T17:20:35;98395.17;;;9.74;100.00
33265;BME280;31404;53.974;-1.086;2024-03-29T17:25:36;98407.11;;;9.80;100.00
33265;BME280;31404;53.974;-1.086;2024-03-29T17:30:37;98403.67;;;9.65;100.00
33265;BME280;31404;53.974;-1.086;2024-03-29T17:35:37;98415.10;;;9.32;100.00
33265;BME280;31404;53.974;-1.086;2024-03-29T17:40:35;98408.33;;;9.51;100.00
33265;BME280;31404;53.974;-1.086;2024-03-29T17:45:36;98416.82;;;10.61;99.55
33265;BME280;31404;53.974;-1.086;2024-03-29T17:50:36;98438.39;;;9.52;100.00
33265;BME280;31404;53.974;-1.086;2024-03-29T17:55:37;98440.74;;;9.78;100.00
33265;BME280;31404;53.974;-1.086;2024-03-29T18:00:36;98446.41;;;9.74;99.31
33265;BME280;31404;53.974;-1.086;2024-03-29T18:05:37;98458.29;;;8.55;100.00
33265;BME280;31404;53.974;-1.086;2024-03-29T18:10:35;98465.20;;;8.48;100.00
33265;BME280;31404;53.974;-1.086;2024-03-29T18:15:36;98478.25;;;8.77;100.00
33265;BME280;31404;53.974;-1.086;2024-03-29T18:20:37;98487.94;;;9.05;100.00
33265;BME280;31404;53.974;-1.086;2024-03-29T18:25:37;98497.39;;;8.11;100.00
33265;BME280;31404;53.974;-1.086;2024-03-29T18:30:35;98505.00;;;8.91;100.00
33265;BME280;31404;53.974;-1.086;2024-03-29T18:35:37;98510.21;;;8.00;100.00
33265;BME280;31404;53.974;-1.086;2024-03-29T18:40:36;98515.27;;;7.23;100.00
33265;BME280;31404;53.974;-1.086;2024-03-29T18:45:38;98504.34;;;7.95;100.00
33265;BME280;31404;53.974;-1.086;2024-03-29T18:50:36;98504.28;;;8.46;100.00
33265;BME280;31404;53.974;-1.086;2024-03-29T18:55:35;98508.24;;;7.52;100.00
33265;BME280;31404;53.974;-1.086;2024-03-29T19:00:37;98514.67;;;7.25;100.00
33265;BME280;31404;53.974;-1.086;2024-03-29T19:05:37;98513.65;;;7.82;100.00
33265;BME280;31404;53.974;-1.086;2024-03-29T19:10:35;98529.49;;;6.96;100.00
33265;BME280;31404;53.974;-1.086;2024-03-29T19:15:37;98528.16;;;8.09;100.00
33265;BME280;31404;53.974;-1.086;2024-03-29T19:20:36;98546.89;;;7.45;100.00
33265;BME280;31404;53.974;-1.086;2024-03-29T19:25:36;98560.47;;;7.73;100.00
33265;BME280;31404;53.974;-1.086;2024-03-29T19:30:36;98569.14;;;8.31;100.00
33265;BME280;31404;53.974;-1.086;2024-03-29T19:35:36;98572.41;;;7.36;100.00
33265;BME280;31404;53.974;-1.086;2024-03-29T19:40:37;98581.44;;;7.70;100.00
33265;BME280;31404;53.974;-1.086;2024-03-29T19:45:35;98579.46;;;7.16;100.00
33265;BME280;31404;53.974;-1.086;2024-03-29T19:55:36;98600.95;;;7.25;100.00
33265;BME280;31404;53.974;-1.086;2024-03-29T20:00:35;98611.89;;;8.07;99.32
33265;BME280;31404;53.974;-1.086;2024-03-29T20:05:36;98621.07;;;7.51;100.00
33265;BME280;31404;53.974;-1.086;2024-03-29T20:10:36;98625.25;;;7.87;98.09
33265;BME280;31404;53.974;-1.086;2024-03-29T20:15:37;98628.18;;;8.11;97.61
33265;BME280;31404;53.974;-1.086;2024-03-29T20:20:37;98640.39;;;8.31;96.45
33265;BME280;31404;53.974;-1.086;2024-03-29T20:25:37;98650.60;;;8.85;95.44
33265;BME280;31404;53.974;-1.086;2024-03-29T20:30:36;98666.67;;;8.33;96.26
33265;BME280;31404;53.974;-1.086;2024-03-29T20:35:39;98674.37;;;8.90;94.16
33265;BME280;31404;53.974;-1.086;2024-03-29T20:40:36;98684.20;;;9.62;90.65
33265;BME280;31404;53.974;-1.086;2024-03-29T20:45:35;98694.56;;;10.11;88.93
33265;BME280;31404;53.974;-1.086;2024-03-29T20:50:37;98707.16;;;10.71;83.85
33265;BME280;31404;53.974;-1.086;2024-03-29T20:55:37;98722.71;;;9.74;86.62
33265;BME280;31404;53.974;-1.086;2024-03-29T21:00:36;98726.09;;;10.30;87.74
33265;BME280;31404;53.974;-1.086;2024-03-29T21:05:37;98740.41;;;10.32;87.94
33265;BME280;31404;53.974;-1.086;2024-03-29T21:10:36;98742.76;;;10.39;85.45
33265;BME280;31404;53.974;-1.086;2024-03-29T21:15:37;98752.79;;;8.77;98.51
33265;BME280;31404;53.974;-1.086;2024-03-29T21:20:37;98761.05;;;8.50;100.00
33265;BME280;31404;53.974;-1.086;2024-03-29T21:25:37;98771.41;;;8.57;100.00
33265;BME280;31404;53.974;-1.086;2024-03-29T21:30:38;98776.74;;;9.12;99.63
33265;BME280;31404;53.974;-1.086;2024-03-29T21:35:38;98786.19;;;9.40;98.14
33265;BME280;31404;53.974;-1.086;2024-03-29T21:40:37;98796.33;;;8.82;99.34
33265;BME280;31404;53.974;-1.086;2024-03-29T21:45:36;98808.42;;;9.22;97.14
33265;BME280;31404;53.974;-1.086;2024-03-29T21:50:37;98811.50;;;9.04;96.97
33265;BME280;31404;53.974;-1.086;2024-03-29T21:55:37;98811.31;;;10.35;89.23
33265;BME280;31404;53.974;-1.086;2024-03-29T22:00:36;98823.61;;;9.88;90.76
33265;BME280;31404;53.974;-1.086;2024-03-29T22:05:36;98828.40;;;10.15;90.67
33265;BME280;31404;53.974;-1.086;2024-03-29T22:10:37;98839.66;;;9.21;95.34
33265;BME280;31404;53.974;-1.086;2024-03-29T22:15:37;98837.95;;;8.08;100.00
33265;BME280;31404;53.974;-1.086;2024-03-29T22:20:36;98844.16;;;8.84;97.49
33265;BME280;31404;53.974;-1.086;2024-03-29T22:25:36;98845.29;;;8.58;100.00
33265;BME280;31404;53.974;-1.086;2024-03-29T22:30:36;98857.83;;;7.06;100.00
33265;BME280;31404;53.974;-1.086;2024-03-29T22:35:36;98861.24;;;6.66;100.00
33265;BME280;31404;53.974;-1.086;2024-03-29T22:45:37;98887.09;;;5.74;100.00
33265;BME280;31404;53.974;-1.086;2024-03-29T22:50:37;98889.56;;;6.63;100.00
33265;BME280;31404;53.974;-1.086;2024-03-29T22:55:36;98889.91;;;7.00;100.00
33265;BME280;31404;53.974;-1.086;2024-03-29T23:00:36;98893.49;;;6.75;100.00
33265;BME280;31404;53.974;-1.086;2024-03-29T23:05:36;98899.63;;;5.77;100.00
33265;BME280;31404;53.974;-1.086;2024-03-29T23:10:36;98896.35;;;6.47;100.00
33265;BME280;31404;53.974;-1.086;2024-03-29T23:15:35;98900.28;;;5.85;100.00
33265;BME280;31404;53.974;-1.086;2024-03-29T23:20:36;98904.23;;;6.48;100.00
33265;BME280;31404;53.974;-1.086;2024-03-29T23:25:39;98906.33;;;7.11;100.00
33265;BME280;31404;53.974;-1.086;2024-03-29T23:30:37;98918.29;;;6.38;100.00
33265;BME280;31404;53.974;-1.086;2024-03-29T23:35:36;98927.57;;;6.33;100.00
33265;BME280;31404;53.974;-1.086;2024-03-29T23:40:37;98919.14;;;6.27;100.00
33265;BME280;31404;53.974;-1.086;2024-03-29T23:45:36;98927.21;;;5.75;100.00
33265;BME280;31404;53.974;-1.086;2024-03-29T23:50:35;98919.69;;;5.42;100.00
33265;BME280;31404;53.974;-1.086;2024-03-29T23:55:37;98922.69;;;5.82;100.00
